sensor_id;sensor_type;location;lat;lon;timestamp;P1;durP1;ratioP1;P2;durP2;ratioP2
7667;SDS011;3876;42.204;24.686;2023-09-19T00:00:17;1.50;;;1.50;;
7667;SDS011;3876;42.204;24.686;2023-09-19T00:02:45;1.73;;;1.63;;
7667;SDS011;3876;42.204;24.686;2023-09-19T00:05:14;1.33;;;1.33;;
7667;SDS011;3876;42.204;24.686;2023-09-19T00:07:41;6.33;;;1.83;;
7667;SDS011;3876;42.204;24.686;2023-09-19T00:10:10;2.03;;;1.50;;
7667;SDS011;3876;42.204;24.686;2023-09-19T00:12:36;2.13;;;1.90;;
7667;SDS011;3876;42.204;24.686;2023-09-19T00:15:03;1.97;;;1.87;;
7667;SDS011;3876;42.204;24.686;2023-09-19T00:17:31;1.63;;;1.60;;
7667;SDS011;3876;42.204;24.686;2023-09-19T00:20:00;1.57;;;1.47;;
7667;SDS011;3876;42.204;24.686;2023-09-19T00:22:40;2.20;;;2.10;;
7667;SDS011;3876;42.204;24.686;2023-09-19T00:25:08;2.40;;;2.13;;
7667;SDS011;3876;42.204;24.686;2023-09-19T00:27:37;2.23;;;2.03;;
7667;SDS011;3876;42.204;24.686;2023-09-19T00:30:07;1.70;;;1.60;;
7667;SDS011;3876;42.204;24.686;2023-09-19T00:32:39;2.17;;;2.00;;
7667;SDS011;3876;42.204;24.686;2023-09-19T00:35:06;1.90;;;1.80;;
7667;SDS011;3876;42.204;24.686;2023-09-19T00:37:34;2.07;;;1.97;;
7667;SDS011;3876;42.204;24.686;2023-09-19T00:40:03;2.00;;;1.90;;
7667;SDS011;3876;42.204;24.686;2023-09-19T00:42:30;2.00;;;1.87;;
7667;SDS011;3876;42.204;24.686;2023-09-19T00:44:58;3.00;;;2.80;;
7667;SDS011;3876;42.204;24.686;2023-09-19T00:47:28;3.40;;;2.33;;
7667;SDS011;3876;42.204;24.686;2023-09-19T00:49:56;3.50;;;2.53;;
7667;SDS011;3876;42.204;24.686;2023-09-19T00:52:23;2.10;;;2.00;;
7667;SDS011;3876;42.204;24.686;2023-09-19T00:54:50;2.73;;;2.60;;
7667;SDS011;3876;42.204;24.686;2023-09-19T00:57:18;2.23;;;2.10;;
7667;SDS011;3876;42.204;24.686;2023-09-19T00:59:47;2.90;;;2.57;;
7667;SDS011;3876;42.204;24.686;2023-09-19T01:02:16;2.70;;;2.60;;
7667;SDS011;3876;42.204;24.686;2023-09-19T01:04:43;2.87;;;2.67;;
7667;SDS011;3876;42.204;24.686;2023-09-19T01:07:11;3.77;;;2.13;;
7667;SDS011;3876;42.204;24.686;2023-09-19T01:09:39;2.63;;;2.23;;
7667;SDS011;3876;42.204;24.686;2023-09-19T01:12:07;2.77;;;2.60;;
7667;SDS011;3876;42.204;24.686;2023-09-19T01:14:40;2.40;;;2.30;;
7667;SDS011;3876;42.204;24.686;2023-09-19T01:17:20;2.60;;;2.23;;
7667;SDS011;3876;42.204;24.686;2023-09-19T01:31:22;2.07;;;1.97;;
7667;SDS011;3876;42.204;24.686;2023-09-19T01:33:58;1.87;;;1.77;;
7667;SDS011;3876;42.204;24.686;2023-09-19T01:36:30;2.40;;;2.30;;
7667;SDS011;3876;42.204;24.686;2023-09-19T01:38:59;5.20;;;2.17;;
7667;SDS011;3876;42.204;24.686;2023-09-19T01:41:37;2.57;;;2.37;;
7667;SDS011;3876;42.204;24.686;2023-09-19T01:44:15;2.90;;;2.70;;
7667;SDS011;3876;42.204;24.686;2023-09-19T01:46:49;2.50;;;2.33;;
7667;SDS011;3876;42.204;24.686;2023-09-19T01:49:20;2.67;;;2.50;;
7667;SDS011;3876;42.204;24.686;2023-09-19T01:51:56;2.23;;;2.13;;
7667;SDS011;3876;42.204;24.686;2023-09-19T01:54:32;3.97;;;2.67;;
7667;SDS011;3876;42.204;24.686;2023-09-19T01:57:05;2.53;;;2.33;;
7667;SDS011;3876;42.204;24.686;2023-09-19T01:59:48;2.67;;;2.23;;
7667;SDS011;3876;42.204;24.686;2023-09-19T02:02:20;6.47;;;2.20;;
7667;SDS011;3876;42.204;24.686;2023-09-19T02:04:48;2.73;;;2.63;;
7667;SDS011;3876;42.204;24.686;2023-09-19T02:07:16;2.50;;;2.30;;
7667;SDS011;3876;42.204;24.686;2023-09-19T02:09:43;3.47;;;2.40;;
7667;SDS011;3876;42.204;24.686;2023-09-19T02:12:10;3.20;;;3.00;;
7667;SDS011;3876;42.204;24.686;2023-09-19T02:14:36;3.23;;;3.03;;
7667;SDS011;3876;42.204;24.686;2023-09-19T02:17:03;3.27;;;2.90;;
7667;SDS011;3876;42.204;24.686;2023-09-19T02:19:33;1.83;;;1.73;;
7667;SDS011;3876;42.204;24.686;2023-09-19T02:22:00;2.53;;;2.33;;
7667;SDS011;3876;42.204;24.686;2023-09-19T02:24:28;2.93;;;2.30;;
7667;SDS011;3876;42.204;24.686;2023-09-19T02:26:56;2.63;;;2.50;;
7667;SDS011;3876;42.204;24.686;2023-09-19T02:29:24;2.50;;;2.40;;
7667;SDS011;3876;42.204;24.686;2023-09-19T02:31:52;3.17;;;2.97;;
7667;SDS011;3876;42.204;24.686;2023-09-19T02:34:21;2.50;;;2.30;;
7667;SDS011;3876;42.204;24.686;2023-09-19T02:36:49;2.10;;;2.00;;
7667;SDS011;3876;42.204;24.686;2023-09-19T02:39:18;2.50;;;2.40;;
7667;SDS011;3876;42.204;24.686;2023-09-19T02:41:45;4.27;;;3.17;;
7667;SDS011;3876;42.204;24.686;2023-09-19T02:44:12;2.67;;;2.57;;
7667;SDS011;3876;42.204;24.686;2023-09-19T02:46:39;2.23;;;2.13;;
7667;SDS011;3876;42.204;24.686;2023-09-19T02:49:07;2.07;;;1.97;;
7667;SDS011;3876;42.204;24.686;2023-09-19T02:51:34;3.63;;;2.30;;
7667;SDS011;3876;42.204;24.686;2023-09-19T02:54:02;2.30;;;2.10;;
7667;SDS011;3876;42.204;24.686;2023-09-19T02:56:29;3.00;;;2.80;;
7667;SDS011;3876;42.204;24.686;2023-09-19T02:58:57;3.63;;;2.80;;
7667;SDS011;3876;42.204;24.686;2023-09-19T03:01:25;2.10;;;2.00;;
7667;SDS011;3876;42.204;24.686;2023-09-19T03:03:53;2.50;;;2.33;;
7667;SDS011;3876;42.204;24.686;2023-09-19T03:06:20;2.53;;;2.43;;
7667;SDS011;3876;42.204;24.686;2023-09-19T03:08:48;2.70;;;2.50;;
7667;SDS011;3876;42.204;24.686;2023-09-19T03:11:18;2.73;;;2.57;;
7667;SDS011;3876;42.204;24.686;2023-09-19T03:13:50;2.53;;;2.33;;
7667;SDS011;3876;42.204;24.686;2023-09-19T03:16:17;2.77;;;2.57;;
7667;SDS011;3876;42.204;24.686;2023-09-19T03:18:46;2.30;;;2.13;;
7667;SDS011;3876;42.204;24.686;2023-09-19T03:21:13;2.00;;;1.90;;
7667;SDS011;3876;42.204;24.686;2023-09-19T03:23:40;1.87;;;1.77;;
7667;SDS011;3876;42.204;24.686;2023-09-19T03:26:10;2.07;;;1.97;;
7667;SDS011;3876;42.204;24.686;2023-09-19T03:28:39;2.03;;;1.93;;
7667;SDS011;3876;42.204;24.686;2023-09-19T03:31:06;2.03;;;1.93;;
7667;SDS011;3876;42.204;24.686;2023-09-19T03:33:32;2.23;;;2.07;;
7667;SDS011;3876;42.204;24.686;2023-09-19T03:36:00;2.43;;;2.33;;
7667;SDS011;3876;42.204;24.686;2023-09-19T03:38:29;2.20;;;2.10;;
7667;SDS011;3876;42.204;24.686;2023-09-19T03:40:56;2.37;;;2.27;;
7667;SDS011;3876;42.204;24.686;2023-09-19T03:43:23;3.20;;;2.43;;
7667;SDS011;3876;42.204;24.686;2023-09-19T03:45:51;2.50;;;2.17;;
7667;SDS011;3876;42.204;24.686;2023-09-19T03:48:19;2.67;;;2.50;;
7667;SDS011;3876;42.204;24.686;2023-09-19T03:50:46;1.87;;;1.77;;
7667;SDS011;3876;42.204;24.686;2023-09-19T03:53:13;1.93;;;1.83;;
7667;SDS011;3876;42.204;24.686;2023-09-19T03:55:40;3.80;;;2.10;;
7667;SDS011;3876;42.204;24.686;2023-09-19T03:58:08;6.63;;;1.87;;
7667;SDS011;3876;42.204;24.686;2023-09-19T04:00:35;2.63;;;2.43;;
7667;SDS011;3876;42.204;24.686;2023-09-19T04:03:03;2.40;;;2.20;;
7667;SDS011;3876;42.204;24.686;2023-09-19T04:05:31;3.20;;;3.07;;
7667;SDS011;3876;42.204;24.686;2023-09-19T04:07:58;2.70;;;2.33;;
7667;SDS011;3876;42.204;24.686;2023-09-19T04:10:25;2.97;;;2.77;;
7667;SDS011;3876;42.204;24.686;2023-09-19T04:12:52;2.50;;;2.30;;
7667;SDS011;3876;42.204;24.686;2023-09-19T04:15:19;2.60;;;2.40;;
7667;SDS011;3876;42.204;24.686;2023-09-19T04:17:48;2.53;;;2.13;;
7667;SDS011;3876;42.204;24.686;2023-09-19T04:20:16;2.30;;;2.20;;
7667;SDS011;3876;42.204;24.686;2023-09-19T04:22:44;2.17;;;2.10;;
7667;SDS011;3876;42.204;24.686;2023-09-19T04:25:11;2.63;;;2.53;;
7667;SDS011;3876;42.204;24.686;2023-09-19T04:27:38;1.80;;;1.77;;
7667;SDS011;3876;42.204;24.686;2023-09-19T04:30:06;2.43;;;2.33;;
7667;SDS011;3876;42.204;24.686;2023-09-19T04:32:35;2.30;;;2.10;;
7667;SDS011;3876;42.204;24.686;2023-09-19T04:35:04;2.63;;;2.47;;
7667;SDS011;3876;42.204;24.686;2023-09-19T04:37:36;2.90;;;2.70;;
7667;SDS011;3876;42.204;24.686;2023-09-19T04:40:04;3.27;;;2.43;;
7667;SDS011;3876;42.204;24.686;2023-09-19T04:42:37;2.00;;;1.77;;
7667;SDS011;3876;42.204;24.686;2023-09-19T04:45:05;2.53;;;2.43;;
7667;SDS011;3876;42.204;24.686;2023-09-19T04:47:34;2.50;;;2.40;;
7667;SDS011;3876;42.204;24.686;2023-09-19T04:50:05;2.83;;;2.63;;
7667;SDS011;3876;42.204;24.686;2023-09-19T04:52:38;2.17;;;2.07;;
7667;SDS011;3876;42.204;24.686;2023-09-19T04:55:07;2.67;;;2.33;;
7667;SDS011;3876;42.204;24.686;2023-09-19T04:57:35;2.73;;;2.60;;
7667;SDS011;3876;42.204;24.686;2023-09-19T05:00:04;3.40;;;3.10;;
7667;SDS011;3876;42.204;24.686;2023-09-19T05:02:37;2.33;;;2.23;;
7667;SDS011;3876;42.204;24.686;2023-09-19T05:05:05;2.50;;;2.30;;
7667;SDS011;3876;42.204;24.686;2023-09-19T05:07:33;2.93;;;2.30;;
7667;SDS011;3876;42.204;24.686;2023-09-19T05:10:01;2.10;;;1.90;;
7667;SDS011;3876;42.204;24.686;2023-09-19T05:12:30;2.70;;;2.60;;
7667;SDS011;3876;42.204;24.686;2023-09-19T05:14:57;2.67;;;2.40;;
7667;SDS011;3876;42.204;24.686;2023-09-19T05:17:24;5.30;;;3.27;;
7667;SDS011;3876;42.204;24.686;2023-09-19T05:19:51;2.83;;;2.63;;
7667;SDS011;3876;42.204;24.686;2023-09-19T05:22:18;2.67;;;2.33;;
7667;SDS011;3876;42.204;24.686;2023-09-19T05:24:45;2.20;;;2.00;;
7667;SDS011;3876;42.204;24.686;2023-09-19T05:27:14;2.50;;;2.33;;
7667;SDS011;3876;42.204;24.686;2023-09-19T05:29:42;2.50;;;2.40;;
7667;SDS011;3876;42.204;24.686;2023-09-19T05:32:09;2.00;;;1.90;;
7667;SDS011;3876;42.204;24.686;2023-09-19T05:34:36;2.60;;;2.50;;
7667;SDS011;3876;42.204;24.686;2023-09-19T05:37:03;3.20;;;2.50;;
7667;SDS011;3876;42.204;24.686;2023-09-19T05:39:32;3.73;;;2.67;;
7667;SDS011;3876;42.204;24.686;2023-09-19T05:41:59;2.23;;;2.13;;
7667;SDS011;3876;42.204;24.686;2023-09-19T05:44:27;1.83;;;1.73;;
7667;SDS011;3876;42.204;24.686;2023-09-19T05:46:54;2.70;;;2.53;;
7667;SDS011;3876;42.204;24.686;2023-09-19T05:49:23;2.83;;;2.13;;
7667;SDS011;3876;42.204;24.686;2023-09-19T05:51:50;2.23;;;2.03;;
7667;SDS011;3876;42.204;24.686;2023-09-19T05:54:19;2.73;;;2.53;;
7667;SDS011;3876;42.204;24.686;2023-09-19T05:56:46;2.70;;;2.23;;
7667;SDS011;3876;42.204;24.686;2023-09-19T05:59:14;3.17;;;2.97;;
7667;SDS011;3876;42.204;24.686;2023-09-19T06:01:42;2.20;;;2.10;;
7667;SDS011;3876;42.204;24.686;2023-09-19T06:04:09;2.43;;;2.23;;
7667;SDS011;3876;42.204;24.686;2023-09-19T06:06:36;3.67;;;2.80;;
7667;SDS011;3876;42.204;24.686;2023-09-19T06:09:05;3.13;;;2.07;;
7667;SDS011;3876;42.204;24.686;2023-09-19T06:11:33;2.40;;;2.20;;
7667;SDS011;3876;42.204;24.686;2023-09-19T06:14:00;2.23;;;2.13;;
7667;SDS011;3876;42.204;24.686;2023-09-19T06:16:27;3.00;;;2.83;;
7667;SDS011;3876;42.204;24.686;2023-09-19T06:18:56;8.67;;;2.73;;
7667;SDS011;3876;42.204;24.686;2023-09-19T06:21:24;2.93;;;2.60;;
7667;SDS011;3876;42.204;24.686;2023-09-19T06:23:51;3.10;;;2.43;;
7667;SDS011;3876;42.204;24.686;2023-09-19T06:26:19;3.20;;;2.13;;
7667;SDS011;3876;42.204;24.686;2023-09-19T06:28:46;2.57;;;2.47;;
7667;SDS011;3876;42.204;24.686;2023-09-19T06:31:13;2.00;;;1.87;;
7667;SDS011;3876;42.204;24.686;2023-09-19T06:33:40;1.90;;;1.80;;
7667;SDS011;3876;42.204;24.686;2023-09-19T06:36:09;2.40;;;2.20;;
7667;SDS011;3876;42.204;24.686;2023-09-19T06:38:36;2.53;;;2.40;;
7667;SDS011;3876;42.204;24.686;2023-09-19T06:41:04;2.23;;;2.13;;
7667;SDS011;3876;42.204;24.686;2023-09-19T06:43:32;2.13;;;2.03;;
7667;SDS011;3876;42.204;24.686;2023-09-19T06:46:00;3.63;;;2.73;;
7667;SDS011;3876;42.204;24.686;2023-09-19T06:48:27;2.10;;;2.00;;
7667;SDS011;3876;42.204;24.686;2023-09-19T06:50:55;2.47;;;2.27;;
7667;SDS011;3876;42.204;24.686;2023-09-19T06:53:25;2.97;;;2.20;;
7667;SDS011;3876;42.204;24.686;2023-09-19T06:55:51;4.73;;;2.40;;
7667;SDS011;3876;42.204;24.686;2023-09-19T06:58:18;2.10;;;2.00;;
7667;SDS011;3876;42.204;24.686;2023-09-19T07:00:45;1.93;;;1.80;;
7667;SDS011;3876;42.204;24.686;2023-09-19T07:03:13;2.57;;;1.67;;
7667;SDS011;3876;42.204;24.686;2023-09-19T07:05:41;2.53;;;2.00;;
7667;SDS011;3876;42.204;24.686;2023-09-19T07:08:09;1.87;;;1.77;;
7667;SDS011;3876;42.204;24.686;2023-09-19T07:10:39;1.80;;;1.70;;
7667;SDS011;3876;42.204;24.686;2023-09-19T07:13:13;2.70;;;1.47;;
7667;SDS011;3876;42.204;24.686;2023-09-19T07:15:42;2.63;;;2.43;;
7667;SDS011;3876;42.204;24.686;2023-09-19T07:18:12;2.40;;;2.30;;
7667;SDS011;3876;42.204;24.686;2023-09-19T07:20:39;3.93;;;2.00;;
7667;SDS011;3876;42.204;24.686;2023-09-19T07:23:10;1.83;;;1.83;;
7667;SDS011;3876;42.204;24.686;2023-09-19T07:25:40;1.97;;;1.87;;
7667;SDS011;3876;42.204;24.686;2023-09-19T07:28:07;2.00;;;1.80;;
7667;SDS011;3876;42.204;24.686;2023-09-19T07:30:35;1.50;;;1.40;;
7667;SDS011;3876;42.204;24.686;2023-09-19T07:33:04;1.50;;;1.47;;
7667;SDS011;3876;42.204;24.686;2023-09-19T07:35:31;1.70;;;1.60;;
7667;SDS011;3876;42.204;24.686;2023-09-19T07:37:59;1.33;;;1.23;;
7667;SDS011;3876;42.204;24.686;2023-09-19T07:40:27;1.90;;;1.27;;
7667;SDS011;3876;42.204;24.686;2023-09-19T07:42:56;1.50;;;1.50;;
7667;SDS011;3876;42.204;24.686;2023-09-19T07:45:26;1.67;;;1.30;;
7667;SDS011;3876;42.204;24.686;2023-09-19T07:47:55;1.50;;;1.50;;
7667;SDS011;3876;42.204;24.686;2023-09-19T07:50:22;1.60;;;1.50;;
7667;SDS011;3876;42.204;24.686;2023-09-19T07:52:49;1.10;;;1.10;;
7667;SDS011;3876;42.204;24.686;2023-09-19T07:55:17;1.67;;;1.57;;
7667;SDS011;3876;42.204;24.686;2023-09-19T07:57:48;1.20;;;1.20;;
7667;SDS011;3876;42.204;24.686;2023-09-19T08:00:16;1.70;;;1.43;;
7667;SDS011;3876;42.204;24.686;2023-09-19T08:02:43;2.23;;;1.33;;
7667;SDS011;3876;42.204;24.686;2023-09-19T08:05:11;1.77;;;1.67;;
7667;SDS011;3876;42.204;24.686;2023-09-19T08:07:40;1.23;;;1.23;;
7667;SDS011;3876;42.204;24.686;2023-09-19T08:10:08;1.90;;;1.80;;
7667;SDS011;3876;42.204;24.686;2023-09-19T08:12:38;1.43;;;1.33;;
7667;SDS011;3876;42.204;24.686;2023-09-19T08:15:11;1.40;;;1.20;;
7667;SDS011;3876;42.204;24.686;2023-09-19T08:17:40;1.00;;;0.97;;
7667;SDS011;3876;42.204;24.686;2023-09-19T08:20:07;1.20;;;1.20;;
7667;SDS011;3876;42.204;24.686;2023-09-19T08:22:41;1.63;;;1.53;;
7667;SDS011;3876;42.204;24.686;2023-09-19T08:25:11;1.20;;;1.20;;
7667;SDS011;3876;42.204;24.686;2023-09-19T08:27:38;1.17;;;1.07;;
7667;SDS011;3876;42.204;24.686;2023-09-19T08:30:05;1.83;;;1.67;;
7667;SDS011;3876;42.204;24.686;2023-09-19T08:32:32;1.50;;;1.40;;
7667;SDS011;3876;42.204;24.686;2023-09-19T08:35:01;1.23;;;1.20;;
7667;SDS011;3876;42.204;24.686;2023-09-19T08:37:29;1.63;;;1.53;;
7667;SDS011;3876;42.204;24.686;2023-09-19T08:39:56;1.23;;;1.17;;
7667;SDS011;3876;42.204;24.686;2023-09-19T08:42:23;1.20;;;1.13;;
7667;SDS011;3876;42.204;24.686;2023-09-19T08:44:50;1.70;;;1.60;;
7667;SDS011;3876;42.204;24.686;2023-09-19T08:47:20;1.20;;;1.20;;
7667;SDS011;3876;42.204;24.686;2023-09-19T08:50:03;2.10;;;1.40;;
7667;SDS011;3876;42.204;24.686;2023-09-19T08:52:40;0.90;;;0.90;;
7667;SDS011;3876;42.204;24.686;2023-09-19T08:55:09;1.20;;;1.20;;
7667;SDS011;3876;42.204;24.686;2023-09-19T08:57:45;1.20;;;1.10;;
7667;SDS011;3876;42.204;24.686;2023-09-19T09:00:14;1.23;;;1.23;;
7667;SDS011;3876;42.204;24.686;2023-09-19T09:02:43;0.80;;;0.80;;
7667;SDS011;3876;42.204;24.686;2023-09-19T09:05:13;1.87;;;1.20;;
7667;SDS011;3876;42.204;24.686;2023-09-19T09:07:41;3.33;;;1.30;;
7667;SDS011;3876;42.204;24.686;2023-09-19T09:10:09;1.33;;;1.23;;
7667;SDS011;3876;42.204;24.686;2023-09-19T09:12:36;1.37;;;1.30;;
7667;SDS011;3876;42.204;24.686;2023-09-19T09:15:05;1.40;;;1.40;;
7667;SDS011;3876;42.204;24.686;2023-09-19T09:17:34;1.40;;;1.30;;
7667;SDS011;3876;42.204;24.686;2023-09-19T09:20:01;1.00;;;1.00;;
7667;SDS011;3876;42.204;24.686;2023-09-19T09:22:31;1.10;;;1.10;;
7667;SDS011;3876;42.204;24.686;2023-09-19T09:24:58;1.60;;;1.50;;
7667;SDS011;3876;42.204;24.686;2023-09-19T09:27:28;1.20;;;1.20;;
7667;SDS011;3876;42.204;24.686;2023-09-19T09:29:56;0.93;;;0.93;;
7667;SDS011;3876;42.204;24.686;2023-09-19T09:32:23;1.17;;;1.17;;
7667;SDS011;3876;42.204;24.686;2023-09-19T09:34:52;1.33;;;1.23;;
7667;SDS011;3876;42.204;24.686;2023-09-19T09:37:20;1.30;;;1.20;;
7667;SDS011;3876;42.204;24.686;2023-09-19T09:39:52;1.17;;;1.10;;
7667;SDS011;3876;42.204;24.686;2023-09-19T09:42:31;1.47;;;1.37;;
7667;SDS011;3876;42.204;24.686;2023-09-19T09:45:13;1.10;;;1.10;;
7667;SDS011;3876;42.204;24.686;2023-09-19T09:47:41;1.00;;;1.00;;
7667;SDS011;3876;42.204;24.686;2023-09-19T09:50:22;1.27;;;1.20;;
7667;SDS011;3876;42.204;24.686;2023-09-19T09:53:05;1.90;;;1.20;;
7667;SDS011;3876;42.204;24.686;2023-09-19T09:56:03;1.50;;;1.40;;
7667;SDS011;3876;42.204;24.686;2023-09-19T09:58:32;1.27;;;1.27;;
7667;SDS011;3876;42.204;24.686;2023-09-19T10:01:00;1.30;;;1.20;;
7667;SDS011;3876;42.204;24.686;2023-09-19T10:03:34;1.73;;;1.63;;
7667;SDS011;3876;42.204;24.686;2023-09-19T10:06:06;2.23;;;2.00;;
7667;SDS011;3876;42.204;24.686;2023-09-19T10:08:59;1.23;;;1.23;;
7667;SDS011;3876;42.204;24.686;2023-09-19T10:11:38;1.13;;;1.13;;
7667;SDS011;3876;42.204;24.686;2023-09-19T10:14:09;1.20;;;1.20;;
7667;SDS011;3876;42.204;24.686;2023-09-19T10:16:38;1.00;;;1.00;;
7667;SDS011;3876;42.204;24.686;2023-09-19T10:19:07;1.10;;;1.10;;
7667;SDS011;3876;42.204;24.686;2023-09-19T10:21:35;1.23;;;1.13;;
7667;SDS011;3876;42.204;24.686;2023-09-19T10:24:04;0.87;;;0.87;;
7667;SDS011;3876;42.204;24.686;2023-09-19T10:26:34;1.00;;;1.00;;
7667;SDS011;3876;42.204;24.686;2023-09-19T10:29:04;1.00;;;1.00;;
7667;SDS011;3876;42.204;24.686;2023-09-19T10:31:34;1.13;;;1.13;;
7667;SDS011;3876;42.204;24.686;2023-09-19T10:34:05;0.87;;;0.87;;
7667;SDS011;3876;42.204;24.686;2023-09-19T10:36:35;1.27;;;1.27;;
7667;SDS011;3876;42.204;24.686;2023-09-19T10:39:04;0.90;;;0.90;;
7667;SDS011;3876;42.204;24.686;2023-09-19T10:41:34;3.17;;;1.10;;
7667;SDS011;3876;42.204;24.686;2023-09-19T10:44:04;1.00;;;1.00;;
7667;SDS011;3876;42.204;24.686;2023-09-19T10:46:31;0.97;;;0.97;;
7667;SDS011;3876;42.204;24.686;2023-09-19T10:48:58;1.70;;;1.23;;
7667;SDS011;3876;42.204;24.686;2023-09-19T10:51:27;1.40;;;1.40;;
7667;SDS011;3876;42.204;24.686;2023-09-19T10:53:59;2.03;;;2.00;;
7667;SDS011;3876;42.204;24.686;2023-09-19T10:56:32;1.53;;;1.53;;
7667;SDS011;3876;42.204;24.686;2023-09-19T10:59:07;1.43;;;1.40;;
7667;SDS011;3876;42.204;24.686;2023-09-19T11:01:44;1.00;;;1.00;;
7667;SDS011;3876;42.204;24.686;2023-09-19T11:04:23;0.93;;;0.93;;
7667;SDS011;3876;42.204;24.686;2023-09-19T11:07:01;1.50;;;1.50;;
7667;SDS011;3876;42.204;24.686;2023-09-19T11:09:48;1.03;;;0.90;;
7667;SDS011;3876;42.204;24.686;2023-09-19T11:21:52;1.23;;;1.23;;
7667;SDS011;3876;42.204;24.686;2023-09-19T11:24:32;1.60;;;1.00;;
7667;SDS011;3876;42.204;24.686;2023-09-19T11:27:11;0.97;;;0.97;;
7667;SDS011;3876;42.204;24.686;2023-09-19T11:29:40;1.10;;;1.10;;
7667;SDS011;3876;42.204;24.686;2023-09-19T11:32:07;0.83;;;0.83;;
7667;SDS011;3876;42.204;24.686;2023-09-19T11:34:41;1.07;;;1.00;;
7667;SDS011;3876;42.204;24.686;2023-09-19T11:40:29;0.80;;;0.80;;
7667;SDS011;3876;42.204;24.686;2023-09-19T11:42:56;2.77;;;1.70;;
7667;SDS011;3876;42.204;24.686;2023-09-19T11:48:30;1.25;;;1.25;;
7667;SDS011;3876;42.204;24.686;2023-09-19T11:50:58;1.40;;;1.40;;
7667;SDS011;3876;42.204;24.686;2023-09-19T11:53:32;2.00;;;1.30;;
7667;SDS011;3876;42.204;24.686;2023-09-19T11:56:04;1.30;;;1.20;;
7667;SDS011;3876;42.204;24.686;2023-09-19T11:58:35;1.13;;;1.13;;
7667;SDS011;3876;42.204;24.686;2023-09-19T12:01:04;1.17;;;1.13;;
7667;SDS011;3876;42.204;24.686;2023-09-19T12:03:33;1.17;;;1.17;;
7667;SDS011;3876;42.204;24.686;2023-09-19T12:06:10;1.50;;;1.20;;
7667;SDS011;3876;42.204;24.686;2023-09-19T12:08:40;0.90;;;0.90;;
7667;SDS011;3876;42.204;24.686;2023-09-19T12:11:13;0.90;;;0.90;;
7667;SDS011;3876;42.204;24.686;2023-09-19T12:13:42;0.95;;;0.95;;
7667;SDS011;3876;42.204;24.686;2023-09-19T12:16:12;1.33;;;1.33;;
7667;SDS011;3876;42.204;24.686;2023-09-19T12:18:41;1.03;;;1.03;;
7667;SDS011;3876;42.204;24.686;2023-09-19T12:21:20;0.87;;;0.87;;
7667;SDS011;3876;42.204;24.686;2023-09-19T12:23:56;0.90;;;0.90;;
7667;SDS011;3876;42.204;24.686;2023-09-19T12:26:41;1.10;;;1.10;;
7667;SDS011;3876;42.204;24.686;2023-09-19T12:29:13;1.10;;;1.10;;
7667;SDS011;3876;42.204;24.686;2023-09-19T12:31:52;3.07;;;1.00;;
7667;SDS011;3876;42.204;24.686;2023-09-19T12:34:23;1.30;;;1.30;;
7667;SDS011;3876;42.204;24.686;2023-09-19T12:37:05;0.83;;;0.83;;
7667;SDS011;3876;42.204;24.686;2023-09-19T12:39:41;1.77;;;0.90;;
7667;SDS011;3876;42.204;24.686;2023-09-19T12:42:15;1.00;;;1.00;;
7667;SDS011;3876;42.204;24.686;2023-09-19T12:44:43;0.90;;;0.90;;
7667;SDS011;3876;42.204;24.686;2023-09-19T12:47:12;1.30;;;1.30;;
7667;SDS011;3876;42.204;24.686;2023-09-19T12:52:40;1.23;;;1.00;;
7667;SDS011;3876;42.204;24.686;2023-09-19T12:55:16;1.17;;;1.07;;
7667;SDS011;3876;42.204;24.686;2023-09-19T12:57:56;0.97;;;0.97;;
7667;SDS011;3876;42.204;24.686;2023-09-19T13:00:31;5.57;;;1.10;;
7667;SDS011;3876;42.204;24.686;2023-09-19T13:03:09;3.85;;;1.70;;
7667;SDS011;3876;42.204;24.686;2023-09-19T13:05:46;0.93;;;0.93;;
7667;SDS011;3876;42.204;24.686;2023-09-19T13:08:17;1.13;;;1.13;;
7667;SDS011;3876;42.204;24.686;2023-09-19T13:11:08;1.45;;;1.33;;
7667;SDS011;3876;42.204;24.686;2023-09-19T13:13:39;1.52;;;1.00;;
7667;SDS011;3876;42.204;24.686;2023-09-19T13:16:09;2.43;;;0.90;;
7667;SDS011;3876;42.204;24.686;2023-09-19T13:18:46;2.83;;;1.07;;
7667;SDS011;3876;42.204;24.686;2023-09-19T13:21:16;0.90;;;0.90;;
7667;SDS011;3876;42.204;24.686;2023-09-19T13:23:53;0.83;;;0.83;;
7667;SDS011;3876;42.204;24.686;2023-09-19T13:26:24;0.88;;;0.88;;
7667;SDS011;3876;42.204;24.686;2023-09-19T13:28:52;1.00;;;1.00;;
7667;SDS011;3876;42.204;24.686;2023-09-19T13:31:19;1.23;;;1.23;;
7667;SDS011;3876;42.204;24.686;2023-09-19T13:33:47;1.25;;;1.15;;
7667;SDS011;3876;42.204;24.686;2023-09-19T13:36:15;0.80;;;0.80;;
7667;SDS011;3876;42.204;24.686;2023-09-19T13:38:44;1.35;;;0.95;;
7667;SDS011;3876;42.204;24.686;2023-09-19T13:41:12;0.82;;;0.82;;
7667;SDS011;3876;42.204;24.686;2023-09-19T13:43:39;0.98;;;0.98;;
7667;SDS011;3876;42.204;24.686;2023-09-19T13:46:07;1.03;;;0.93;;
7667;SDS011;3876;42.204;24.686;2023-09-19T13:48:37;0.93;;;0.93;;
7667;SDS011;3876;42.204;24.686;2023-09-19T13:51:04;0.82;;;0.82;;
7667;SDS011;3876;42.204;24.686;2023-09-19T13:53:31;1.20;;;1.20;;
7667;SDS011;3876;42.204;24.686;2023-09-19T13:55:58;1.05;;;1.05;;
7667;SDS011;3876;42.204;24.686;2023-09-19T13:58:24;1.00;;;1.00;;
7667;SDS011;3876;42.204;24.686;2023-09-19T14:00:52;0.93;;;0.93;;
7667;SDS011;3876;42.204;24.686;2023-09-19T14:03:21;1.00;;;1.00;;
7667;SDS011;3876;42.204;24.686;2023-09-19T14:05:49;3.10;;;1.25;;
7667;SDS011;3876;42.204;24.686;2023-09-19T14:08:16;0.82;;;0.82;;
7667;SDS011;3876;42.204;24.686;2023-09-19T14:10:43;1.50;;;1.40;;
7667;SDS011;3876;42.204;24.686;2023-09-19T14:13:10;1.38;;;1.00;;
7667;SDS011;3876;42.204;24.686;2023-09-19T14:15:38;0.85;;;0.85;;
7667;SDS011;3876;42.204;24.686;2023-09-19T14:18:05;4.50;;;1.10;;
7667;SDS011;3876;42.204;24.686;2023-09-19T14:20:33;0.90;;;0.90;;
7667;SDS011;3876;42.204;24.686;2023-09-19T14:23:05;0.90;;;0.90;;
7667;SDS011;3876;42.204;24.686;2023-09-19T14:25:33;1.03;;;1.03;;
7667;SDS011;3876;42.204;24.686;2023-09-19T14:28:01;1.00;;;1.00;;
7667;SDS011;3876;42.204;24.686;2023-09-19T14:30:28;0.80;;;0.80;;
7667;SDS011;3876;42.204;24.686;2023-09-19T14:32:54;1.25;;;1.25;;
7667;SDS011;3876;42.204;24.686;2023-09-19T14:35:22;1.23;;;1.20;;
7667;SDS011;3876;42.204;24.686;2023-09-19T14:37:51;0.80;;;0.80;;
7667;SDS011;3876;42.204;24.686;2023-09-19T14:40:17;1.00;;;0.70;;
7667;SDS011;3876;42.204;24.686;2023-09-19T14:42:45;1.00;;;1.00;;
7667;SDS011;3876;42.204;24.686;2023-09-19T14:45:11;0.95;;;0.95;;
7667;SDS011;3876;42.204;24.686;2023-09-19T14:47:41;0.60;;;0.60;;
7667;SDS011;3876;42.204;24.686;2023-09-19T14:50:09;1.00;;;0.60;;
7667;SDS011;3876;42.204;24.686;2023-09-19T14:52:37;1.10;;;1.10;;
7667;SDS011;3876;42.204;24.686;2023-09-19T14:55:06;0.90;;;0.90;;
7667;SDS011;3876;42.204;24.686;2023-09-19T14:57:39;0.90;;;0.88;;
7667;SDS011;3876;42.204;24.686;2023-09-19T15:00:07;1.00;;;1.00;;
7667;SDS011;3876;42.204;24.686;2023-09-19T15:02:37;1.10;;;1.10;;
7667;SDS011;3876;42.204;24.686;2023-09-19T15:05:05;1.33;;;1.33;;
7667;SDS011;3876;42.204;24.686;2023-09-19T15:07:33;1.10;;;1.00;;
7667;SDS011;3876;42.204;24.686;2023-09-19T15:10:02;1.10;;;1.10;;
7667;SDS011;3876;42.204;24.686;2023-09-19T15:12:33;1.33;;;1.23;;
7667;SDS011;3876;42.204;24.686;2023-09-19T15:15:02;1.27;;;1.13;;
7667;SDS011;3876;42.204;24.686;2023-09-19T15:17:30;0.70;;;0.70;;
7667;SDS011;3876;42.204;24.686;2023-09-19T15:19:57;0.83;;;0.83;;
7667;SDS011;3876;42.204;24.686;2023-09-19T15:22:24;1.10;;;1.10;;
7667;SDS011;3876;42.204;24.686;2023-09-19T15:24:51;0.80;;;0.80;;
7667;SDS011;3876;42.204;24.686;2023-09-19T15:27:18;0.80;;;0.80;;
7667;SDS011;3876;42.204;24.686;2023-09-19T15:29:46;0.90;;;0.90;;
7667;SDS011;3876;42.204;24.686;2023-09-19T15:32:13;1.10;;;1.10;;
7667;SDS011;3876;42.204;24.686;2023-09-19T15:34:40;0.90;;;0.90;;
7667;SDS011;3876;42.204;24.686;2023-09-19T15:37:07;1.20;;;1.20;;
7667;SDS011;3876;42.204;24.686;2023-09-19T15:39:34;2.30;;;1.23;;
7667;SDS011;3876;42.204;24.686;2023-09-19T15:42:02;1.27;;;1.10;;
7667;SDS011;3876;42.204;24.686;2023-09-19T15:44:29;1.47;;;1.37;;